sensor_id;sensor_type;location;lat;lon;timestamp;pressure;altitude;pressure_sealevel;temperature;humidity
77019;BME280;66044;53.142;17.962;2023-07-31T00:01:24;100429.39;;;18.00;66.46
77019;BME280;66044;53.142;17.962;2023-07-31T00:03:50;100431.86;;;17.94;66.63
77019;BME280;66044;53.142;17.962;2023-07-31T00:06:16;100436.80;;;17.90;66.91
77019;BME280;66044;53.142;17.962;2023-07-31T00:08:43;100434.70;;;17.87;67.05
77019;BME280;66044;53.142;17.962;2023-07-31T00:11:09;100431.73;;;17.84;67.10
77019;BME280;66044;53.142;17.962;2023-07-31T00:13:36;100434.52;;;17.84;67.24
77019;BME280;66044;53.142;17.962;2023-07-31T00:16:02;100429.32;;;17.81;67.33
77019;BME280;66044;53.142;17.962;2023-07-31T00:18:29;100430.63;;;17.79;67.46
77019;BME280;66044;53.142;17.962;2023-07-31T00:20:55;100426.11;;;17.77;67.55
77019;BME280;66044;53.142;17.962;2023-07-31T00:23:22;100427.34;;;17.75;67.55
77019;BME280;66044;53.142;17.962;2023-07-31T00:25:48;100421.52;;;17.73;67.71
77019;BME280;66044;53.142;17.962;2023-07-31T00:28:14;100418.63;;;17.71;67.64
77019;BME280;66044;53.142;17.962;2023-07-31T00:30:41;100418.85;;;17.70;67.81
77019;BME280;66044;53.142;17.962;2023-07-31T00:33:07;100424.73;;;17.69;67.91
77019;BME280;66044;53.142;17.962;2023-07-31T00:35:33;100426.52;;;17.69;68.04
77019;BME280;66044;53.142;17.962;2023-07-31T00:38:00;100431.02;;;17.68;68.01
77019;BME280;66044;53.142;17.962;2023-07-31T00:40:26;100425.65;;;17.68;68.08
77019;BME280;66044;53.142;17.962;2023-07-31T00:42:53;100425.50;;;17.66;68.24
77019;BME280;66044;53.142;17.962;2023-07-31T00:45:19;100424.96;;;17.66;68.41
77019;BME280;66044;53.142;17.962;2023-07-31T00:47:49;100420.21;;;17.64;68.47
77019;BME280;66044;53.142;17.962;2023-07-31T00:50:16;100428.90;;;17.63;68.56
77019;BME280;66044;53.142;17.962;2023-07-31T00:52:43;100430.44;;;17.62;68.47
77019;BME280;66044;53.142;17.962;2023-07-31T00:55:09;100431.70;;;17.60;68.62
77019;BME280;66044;53.142;17.962;2023-07-31T00:57:36;100435.13;;;17.59;68.71
77019;BME280;66044;53.142;17.962;2023-07-31T01:00:05;100439.55;;;17.58;68.78
77019;BME280;66044;53.142;17.962;2023-07-31T01:02:31;100442.25;;;17.56;68.88
77019;BME280;66044;53.142;17.962;2023-07-31T01:04:58;100439.81;;;17.54;68.97
77019;BME280;66044;53.142;17.962;2023-07-31T01:07:49;100441.05;;;17.52;69.04
77019;BME280;66044;53.142;17.962;2023-07-31T01:10:23;100441.67;;;17.51;69.19
77019;BME280;66044;53.142;17.962;2023-07-31T01:12:53;100444.37;;;17.49;69.03
77019;BME280;66044;53.142;17.962;2023-07-31T01:15:20;100448.16;;;17.48;69.04
77019;BME280;66044;53.142;17.962;2023-07-31T01:17:47;100447.52;;;17.47;69.07
77019;BME280;66044;53.142;17.962;2023-07-31T01:20:17;100453.88;;;17.45;69.05
77019;BME280;66044;53.142;17.962;2023-07-31T01:28:15;100449.33;;;17.37;69.19
77019;BME280;66044;53.142;17.962;2023-07-31T01:30:47;100448.42;;;17.31;69.31
77019;BME280;66044;53.142;17.962;2023-07-31T01:33:15;100451.25;;;17.26;69.37
77019;BME280;66044;53.142;17.962;2023-07-31T01:35:44;100453.39;;;17.22;69.34
77019;BME280;66044;53.142;17.962;2023-07-31T01:38:11;100446.91;;;17.17;69.57
77019;BME280;66044;53.142;17.962;2023-07-31T01:40:41;100446.88;;;17.12;69.59
77019;BME280;66044;53.142;17.962;2023-07-31T01:43:08;100446.36;;;17.07;69.68
77019;BME280;66044;53.142;17.962;2023-07-31T01:45:35;100444.99;;;17.01;69.69
77019;BME280;66044;53.142;17.962;2023-07-31T01:48:01;100444.11;;;16.97;69.86
77019;BME280;66044;53.142;17.962;2023-07-31T01:50:27;100446.61;;;16.92;69.98
77019;BME280;66044;53.142;17.962;2023-07-31T01:52:54;100449.07;;;16.88;70.28
77019;BME280;66044;53.142;17.962;2023-07-31T01:55:20;100449.65;;;16.85;70.32
77019;BME280;66044;53.142;17.962;2023-07-31T01:57:47;100446.00;;;16.82;70.51
77019;BME280;66044;53.142;17.962;2023-07-31T02:00:14;100449.20;;;16.79;70.51
77019;BME280;66044;53.142;17.962;2023-07-31T02:02:41;100450.34;;;16.75;70.64
77019;BME280;66044;53.142;17.962;2023-07-31T02:05:08;100446.88;;;16.71;70.82
77019;BME280;66044;53.142;17.962;2023-07-31T02:07:34;100445.74;;;16.66;70.83
77019;BME280;66044;53.142;17.962;2023-07-31T02:10:00;100446.14;;;16.61;71.09
77019;BME280;66044;53.142;17.962;2023-07-31T02:12:27;100444.06;;;16.57;71.07
77019;BME280;66044;53.142;17.962;2023-07-31T02:14:56;100447.21;;;16.54;71.19
77019;BME280;66044;53.142;17.962;2023-07-31T02:17:23;100454.30;;;16.50;71.22
77019;BME280;66044;53.142;17.962;2023-07-31T02:19:49;100452.40;;;16.46;71.28
77019;BME280;66044;53.142;17.962;2023-07-31T02:22:16;100451.81;;;16.43;71.49
77019;BME280;66044;53.142;17.962;2023-07-31T02:24:42;100458.12;;;16.39;71.81
77019;BME280;66044;53.142;17.962;2023-07-31T02:27:08;100455.75;;;16.35;71.73
77019;BME280;66044;53.142;17.962;2023-07-31T02:29:35;100447.81;;;16.33;71.77
77019;BME280;66044;53.142;17.962;2023-07-31T02:32:01;100449.05;;;16.31;71.85
77019;BME280;66044;53.142;17.962;2023-07-31T02:34:28;100453.89;;;16.28;71.83
77019;BME280;66044;53.142;17.962;2023-07-31T02:36:54;100454.86;;;16.26;72.05
77019;BME280;66044;53.142;17.962;2023-07-31T02:39:20;100460.26;;;16.22;72.12
77019;BME280;66044;53.142;17.962;2023-07-31T02:41:47;100460.36;;;16.20;72.22
77019;BME280;66044;53.142;17.962;2023-07-31T02:44:14;100461.41;;;16.17;72.53
77019;BME280;66044;53.142;17.962;2023-07-31T02:46:40;100460.99;;;16.14;72.31
77019;BME280;66044;53.142;17.962;2023-07-31T02:49:07;100458.69;;;16.10;72.51
77019;BME280;66044;53.142;17.962;2023-07-31T02:51:33;100459.75;;;16.07;72.50
77019;BME280;66044;53.142;17.962;2023-07-31T02:54:00;100457.77;;;16.05;72.54
77019;BME280;66044;53.142;17.962;2023-07-31T02:56:26;100459.83;;;16.01;72.69
77019;BME280;66044;53.142;17.962;2023-07-31T02:58:52;100461.47;;;15.98;72.87
77019;BME280;66044;53.142;17.962;2023-07-31T03:01:19;100455.70;;;15.95;72.89
77019;BME280;66044;53.142;17.962;2023-07-31T03:03:45;100454.73;;;15.92;72.89
77019;BME280;66044;53.142;17.962;2023-07-31T03:06:11;100451.59;;;15.89;72.98
77019;BME280;66044;53.142;17.962;2023-07-31T03:08:38;100451.71;;;15.86;72.86
77019;BME280;66044;53.142;17.962;2023-07-31T03:11:04;100447.91;;;15.84;73.01
77019;BME280;66044;53.142;17.962;2023-07-31T03:13:31;100453.88;;;15.84;72.91
77019;BME280;66044;53.142;17.962;2023-07-31T03:15:57;100458.21;;;15.85;72.92
77019;BME280;66044;53.142;17.962;2023-07-31T03:18:23;100460.39;;;15.87;73.09
77019;BME280;66044;53.142;17.962;2023-07-31T03:20:50;100460.03;;;15.88;73.04
77019;BME280;66044;53.142;17.962;2023-07-31T03:23:17;100464.86;;;15.91;73.25
77019;BME280;66044;53.142;17.962;2023-07-31T03:25:59;100469.45;;;15.93;72.85
77019;BME280;66044;53.142;17.962;2023-07-31T03:28:26;100476.28;;;15.95;72.94
77019;BME280;66044;53.142;17.962;2023-07-31T03:30:53;100478.17;;;15.97;72.69
77019;BME280;66044;53.142;17.962;2023-07-31T03:33:19;100478.54;;;16.00;72.77
77019;BME280;66044;53.142;17.962;2023-07-31T03:35:46;100481.08;;;16.05;72.56
77019;BME280;66044;53.142;17.962;2023-07-31T03:38:13;100482.10;;;16.12;72.43
77019;BME280;66044;53.142;17.962;2023-07-31T03:40:39;100488.41;;;16.21;72.04
77019;BME280;66044;53.142;17.962;2023-07-31T03:43:06;100490.19;;;16.32;71.90
77019;BME280;66044;53.142;17.962;2023-07-31T03:45:32;100490.55;;;16.43;71.89
77019;BME280;66044;53.142;17.962;2023-07-31T03:47:59;100491.41;;;16.50;71.83
77019;BME280;66044;53.142;17.962;2023-07-31T03:50:25;100491.04;;;16.57;71.65
77019;BME280;66044;53.142;17.962;2023-07-31T03:52:52;100491.92;;;16.66;71.25
77019;BME280;66044;53.142;17.962;2023-07-31T03:55:19;100495.20;;;16.74;71.17
77019;BME280;66044;53.142;17.962;2023-07-31T03:57:45;100494.20;;;16.82;70.89
77019;BME280;66044;53.142;17.962;2023-07-31T04:00:12;100494.78;;;16.95;70.71
77019;BME280;66044;53.142;17.962;2023-07-31T04:02:38;100501.39;;;17.11;70.50
77019;BME280;66044;53.142;17.962;2023-07-31T04:05:05;100502.61;;;17.26;69.87
77019;BME280;66044;53.142;17.962;2023-07-31T04:07:32;100497.16;;;17.42;69.46
77019;BME280;66044;53.142;17.962;2023-07-31T04:09:59;100495.14;;;17.53;69.17
77019;BME280;66044;53.142;17.962;2023-07-31T04:12:26;100489.83;;;17.58;68.75
77019;BME280;66044;53.142;17.962;2023-07-31T04:14:52;100489.21;;;17.65;68.39
77019;BME280;66044;53.142;17.962;2023-07-31T04:17:19;100488.36;;;17.75;68.09
77019;BME280;66044;53.142;17.962;2023-07-31T04:19:45;100489.71;;;17.81;67.85
77019;BME280;66044;53.142;17.962;2023-07-31T04:22:12;100486.23;;;17.86;67.62
77019;BME280;66044;53.142;17.962;2023-07-31T04:24:38;100485.19;;;17.88;67.32
77019;BME280;66044;53.142;17.962;2023-07-31T04:27:05;100484.11;;;17.91;67.10
77019;BME280;66044;53.142;17.962;2023-07-31T04:29:31;100483.83;;;17.97;66.82
77019;BME280;66044;53.142;17.962;2023-07-31T04:31:58;100482.65;;;18.09;66.60
77019;BME280;66044;53.142;17.962;2023-07-31T04:34:24;100480.40;;;18.70;65.61
77019;BME280;66044;53.142;17.962;2023-07-31T04:36:50;100483.71;;;19.49;64.35
77019;BME280;66044;53.142;17.962;2023-07-31T04:39:17;100491.34;;;20.45;62.75
77019;BME280;66044;53.142;17.962;2023-07-31T04:41:43;100498.45;;;21.99;60.47
77019;BME280;66044;53.142;17.962;2023-07-31T04:44:09;100500.64;;;23.19;58.11
77019;BME280;66044;53.142;17.962;2023-07-31T04:46:37;100503.30;;;24.94;54.74
77019;BME280;66044;53.142;17.962;2023-07-31T04:49:04;100508.77;;;25.72;52.73
77019;BME280;66044;53.142;17.962;2023-07-31T04:51:30;100510.56;;;27.21;49.78
77019;BME280;66044;53.142;17.962;2023-07-31T04:53:56;100514.44;;;28.99;46.77
77019;BME280;66044;53.142;17.962;2023-07-31T04:56:23;100523.73;;;30.46;43.86
77019;BME280;66044;53.142;17.962;2023-07-31T04:58:49;100526.73;;;30.99;41.45
77019;BME280;66044;53.142;17.962;2023-07-31T05:01:16;100525.73;;;31.89;39.69
77019;BME280;66044;53.142;17.962;2023-07-31T05:03:42;100532.69;;;33.25;37.84
77019;BME280;66044;53.142;17.962;2023-07-31T05:06:08;100530.68;;;34.20;35.98
77019;BME280;66044;53.142;17.962;2023-07-31T05:08:35;100533.76;;;34.29;35.02
77019;BME280;66044;53.142;17.962;2023-07-31T05:11:02;100530.50;;;33.31;35.23
77019;BME280;66044;53.142;17.962;2023-07-31T05:13:28;100528.80;;;32.39;35.31
77019;BME280;66044;53.142;17.962;2023-07-31T05:15:54;100521.73;;;31.37;36.16
77019;BME280;66044;53.142;17.962;2023-07-31T05:18:21;100523.20;;;30.70;36.58
77019;BME280;66044;53.142;17.962;2023-07-31T05:20:47;100520.03;;;29.90;37.02
77019;BME280;66044;53.142;17.962;2023-07-31T05:23:14;100520.16;;;29.27;37.76
77019;BME280;66044;53.142;17.962;2023-07-31T05:25:41;100511.58;;;28.88;37.96
77019;BME280;66044;53.142;17.962;2023-07-31T05:28:07;100514.36;;;29.40;37.90
77019;BME280;66044;53.142;17.962;2023-07-31T05:30:34;100522.40;;;30.92;36.45
77019;BME280;66044;53.142;17.962;2023-07-31T05:33:00;100519.66;;;32.48;34.70
77019;BME280;66044;53.142;17.962;2023-07-31T05:35:27;100522.56;;;34.16;32.47
77019;BME280;66044;53.142;17.962;2023-07-31T05:37:53;100527.95;;;35.37;31.27
77019;BME280;66044;53.142;17.962;2023-07-31T05:40:20;100529.86;;;36.84;29.37
77019;BME280;66044;53.142;17.962;2023-07-31T05:42:46;100522.96;;;37.19;28.55
77019;BME280;66044;53.142;17.962;2023-07-31T05:45:13;100527.22;;;38.32;26.73
77019;BME280;66044;53.142;17.962;2023-07-31T05:47:40;100525.59;;;39.11;25.90
77019;BME280;66044;53.142;17.962;2023-07-31T05:50:07;100529.65;;;40.20;25.15
77019;BME280;66044;53.142;17.962;2023-07-31T05:52:34;100533.52;;;41.42;23.89
77019;BME280;66044;53.142;17.962;2023-07-31T05:55:00;100533.44;;;42.36;22.62
77019;BME280;66044;53.142;17.962;2023-07-31T05:57:27;100539.84;;;43.27;22.28
77019;BME280;66044;53.142;17.962;2023-07-31T05:59:54;100541.05;;;43.81;20.66
77019;BME280;66044;53.142;17.962;2023-07-31T06:02:20;100544.98;;;44.12;20.13
77019;BME280;66044;53.142;17.962;2023-07-31T06:04:46;100543.67;;;44.50;19.89
77019;BME280;66044;53.142;17.962;2023-07-31T06:07:13;100542.20;;;45.03;19.30
77019;BME280;66044;53.142;17.962;2023-07-31T06:09:39;100543.20;;;45.81;18.60
77019;BME280;66044;53.142;17.962;2023-07-31T06:12:06;100539.75;;;46.59;18.13
77019;BME280;66044;53.142;17.962;2023-07-31T06:14:33;100541.95;;;47.24;17.44
77019;BME280;66044;53.142;17.962;2023-07-31T06:16:59;100541.64;;;47.69;16.70
77019;BME280;66044;53.142;17.962;2023-07-31T06:19:26;100540.52;;;48.13;16.18
77019;BME280;66044;53.142;17.962;2023-07-31T06:21:52;100543.23;;;48.59;16.06
77019;BME280;66044;53.142;17.962;2023-07-31T06:24:18;100540.39;;;48.94;15.38
77019;BME280;66044;53.142;17.962;2023-07-31T06:26:46;100538.78;;;49.36;15.25
77019;BME280;66044;53.142;17.962;2023-07-31T06:29:13;100536.61;;;49.73;14.75
77019;BME280;66044;53.142;17.962;2023-07-31T06:31:40;100539.02;;;50.22;14.50
77019;BME280;66044;53.142;17.962;2023-07-31T06:34:07;100535.78;;;50.66;13.80
77019;BME280;66044;53.142;17.962;2023-07-31T06:36:33;100536.98;;;50.43;13.25
77019;BME280;66044;53.142;17.962;2023-07-31T06:39:00;100537.70;;;49.59;13.59
77019;BME280;66044;53.142;17.962;2023-07-31T06:41:26;100528.85;;;48.50;14.23
77019;BME280;66044;53.142;17.962;2023-07-31T06:43:53;100522.66;;;47.26;14.70
77019;BME280;66044;53.142;17.962;2023-07-31T06:46:19;100523.34;;;45.49;16.10
77019;BME280;66044;53.142;17.962;2023-07-31T06:48:46;100518.60;;;44.10;16.91
77019;BME280;66044;53.142;17.962;2023-07-31T06:51:12;100508.19;;;43.14;17.13
77019;BME280;66044;53.142;17.962;2023-07-31T06:53:38;100504.74;;;41.70;18.10
77019;BME280;66044;53.142;17.962;2023-07-31T06:56:05;100504.48;;;40.18;18.95
77019;BME280;66044;53.142;17.962;2023-07-31T06:58:31;100502.40;;;38.62;20.43
77019;BME280;66044;53.142;17.962;2023-07-31T07:00:58;100493.59;;;37.09;21.86
77019;BME280;66044;53.142;17.962;2023-07-31T07:03:24;100489.43;;;36.18;22.94
77019;BME280;66044;53.142;17.962;2023-07-31T07:05:51;100494.31;;;35.35;23.71
77019;BME280;66044;53.142;17.962;2023-07-31T07:08:17;100488.93;;;34.48;24.54
77019;BME280;66044;53.142;17.962;2023-07-31T07:10:44;100483.08;;;33.57;25.44
77019;BME280;66044;53.142;17.962;2023-07-31T07:13:11;100476.89;;;32.66;26.45
77019;BME280;66044;53.142;17.962;2023-07-31T07:15:39;100477.63;;;31.83;27.20
77019;BME280;66044;53.142;17.962;2023-07-31T07:18:05;100480.23;;;31.11;28.05
77019;BME280;66044;53.142;17.962;2023-07-31T07:20:32;100482.22;;;30.60;28.86
77019;BME280;66044;53.142;17.962;2023-07-31T07:22:59;100484.00;;;30.26;29.40
77019;BME280;66044;53.142;17.962;2023-07-31T07:25:25;100486.34;;;29.79;30.09
77019;BME280;66044;53.142;17.962;2023-07-31T07:27:52;100478.20;;;29.34;30.80
77019;BME280;66044;53.142;17.962;2023-07-31T07:30:18;100480.59;;;29.33;31.25
77019;BME280;66044;53.142;17.962;2023-07-31T07:32:46;100473.88;;;29.31;31.52
77019;BME280;66044;53.142;17.962;2023-07-31T07:35:12;100478.45;;;29.12;31.81
77019;BME280;66044;53.142;17.962;2023-07-31T07:37:39;100479.66;;;28.86;32.01
77019;BME280;66044;53.142;17.962;2023-07-31T07:40:06;100483.23;;;28.85;32.41
77019;BME280;66044;53.142;17.962;2023-07-31T07:42:33;100481.63;;;28.78;32.58
77019;BME280;66044;53.142;17.962;2023-07-31T07:44:59;100479.60;;;28.48;32.61
77019;BME280;66044;53.142;17.962;2023-07-31T07:47:25;100475.36;;;28.16;33.29
77019;BME280;66044;53.142;17.962;2023-07-31T07:49:52;100469.70;;;27.88;33.71
77019;BME280;66044;53.142;17.962;2023-07-31T07:52:19;100473.42;;;27.61;34.21
77019;BME280;66044;53.142;17.962;2023-07-31T07:54:45;100478.13;;;27.40;34.30
77019;BME280;66044;53.142;17.962;2023-07-31T07:57:12;100478.73;;;27.15;34.90
77019;BME280;66044;53.142;17.962;2023-07-31T07:59:38;100475.39;;;26.97;35.08
77019;BME280;66044;53.142;17.962;2023-07-31T08:02:05;100470.25;;;26.71;35.15
77019;BME280;66044;53.142;17.962;2023-07-31T08:04:31;100470.71;;;26.38;35.48
77019;BME280;66044;53.142;17.962;2023-07-31T08:06:58;100475.92;;;26.06;35.89
77019;BME280;66044;53.142;17.962;2023-07-31T08:09:24;100472.13;;;25.75;36.24
77019;BME280;66044;53.142;17.962;2023-07-31T08:11:51;100467.41;;;25.51;36.61
77019;BME280;66044;53.142;17.962;2023-07-31T08:14:17;100463.61;;;25.27;37.16
77019;BME280;66044;53.142;17.962;2023-07-31T08:16:44;100462.69;;;24.94;37.82
77019;BME280;66044;53.142;17.962;2023-07-31T08:19:10;100467.71;;;24.54;38.36
77019;BME280;66044;53.142;17.962;2023-07-31T08:21:37;100467.84;;;24.30;38.74
77019;BME280;66044;53.142;17.962;2023-07-31T08:24:04;100466.72;;;24.31;39.08
77019;BME280;66044;53.142;17.962;2023-07-31T08:26:31;100464.63;;;24.37;39.49
77019;BME280;66044;53.142;17.962;2023-07-31T08:28:57;100465.43;;;24.44;39.62
77019;BME280;66044;53.142;17.962;2023-07-31T08:31:24;100466.31;;;24.47;39.63
77019;BME280;66044;53.142;17.962;2023-07-31T08:33:51;100463.45;;;24.41;39.49
77019;BME280;66044;53.142;17.962;2023-07-31T08:36:17;100460.77;;;24.27;39.44
77019;BME280;66044;53.142;17.962;2023-07-31T08:38:45;100462.85;;;24.20;39.78
77019;BME280;66044;53.142;17.962;2023-07-31T08:41:11;100456.78;;;24.21;39.69
77019;BME280;66044;53.142;17.962;2023-07-31T08:43:39;100456.51;;;24.46;39.48
77019;BME280;66044;53.142;17.962;2023-07-31T08:46:07;100457.36;;;24.75;39.19
77019;BME280;66044;53.142;17.962;2023-07-31T08:48:35;100456.17;;;25.06;39.12
77019;BME280;66044;53.142;17.962;2023-07-31T08:51:04;100453.98;;;25.32;38.81
77019;BME280;66044;53.142;17.962;2023-07-31T08:53:30;100451.76;;;25.42;38.58
77019;BME280;66044;53.142;17.962;2023-07-31T08:55:58;100453.38;;;25.55;38.59
77019;BME280;66044;53.142;17.962;2023-07-31T08:58:27;100453.66;;;25.60;38.67
77019;BME280;66044;53.142;17.962;2023-07-31T09:00:57;100455.35;;;25.58;38.78
77019;BME280;66044;53.142;17.962;2023-07-31T09:03:25;100445.73;;;25.53;38.98
77019;BME280;66044;53.142;17.962;2023-07-31T09:05:53;100445.25;;;25.35;39.20
77019;BME280;66044;53.142;17.962;2023-07-31T09:08:21;100440.66;;;25.09;39.73
77019;BME280;66044;53.142;17.962;2023-07-31T09:10:48;100435.47;;;25.02;40.18
77019;BME280;66044;53.142;17.962;2023-07-31T09:13:18;100433.77;;;25.04;40.19
77019;BME280;66044;53.142;17.962;2023-07-31T09:15:45;100430.62;;;24.91;40.46
77019;BME280;66044;53.142;17.962;2023-07-31T09:18:12;100425.04;;;24.81;40.85
77019;BME280;66044;53.142;17.962;2023-07-31T09:20:40;100426.23;;;24.88;40.84
77019;BME280;66044;53.142;17.962;2023-07-31T09:23:11;100420.96;;;24.83;40.95
77019;BME280;66044;53.142;17.962;2023-07-31T09:25:40;100422.67;;;24.85;40.96
77019;BME280;66044;53.142;17.962;2023-07-31T09:28:10;100418.64;;;24.72;41.06
77019;BME280;66044;53.142;17.962;2023-07-31T09:33:11;100410.39;;;24.15;42.16
77019;BME280;66044;53.142;17.962;2023-07-31T09:35:37;100413.41;;;23.91;42.57
77019;BME280;66044;53.142;17.962;2023-07-31T09:38:06;100404.73;;;23.81;43.09
77019;BME280;66044;53.142;17.962;2023-07-31T09:40:35;100401.86;;;23.99;43.12
77019;BME280;66044;53.142;17.962;2023-07-31T09:43:04;100402.00;;;24.19;42.82
77019;BME280;66044;53.142;17.962;2023-07-31T09:45:37;100403.58;;;24.34;42.48
77019;BME280;66044;53.142;17.962;2023-07-31T09:48:09;100396.52;;;24.41;42.66
77019;BME280;66044;53.142;17.962;2023-07-31T09:50:41;100389.80;;;24.32;43.05
77019;BME280;66044;53.142;17.962;2023-07-31T09:53:10;100389.64;;;24.21;43.17
77019;BME280;66044;53.142;17.962;2023-07-31T09:55:40;100388.28;;;23.99;43.21
77019;BME280;66044;53.142;17.962;2023-07-31T09:58:12;100394.04;;;23.58;43.95
77019;BME280;66044;53.142;17.962;2023-07-31T10:00:39;100393.40;;;23.23;44.99
77019;BME280;66044;53.142;17.962;2023-07-31T10:03:08;100403.34;;;22.87;45.99
77019;BME280;66044;53.142;17.962;2023-07-31T10:05:40;100413.79;;;22.49;48.15
77019;BME280;66044;53.142;17.962;2023-07-31T10:08:10;100413.30;;;21.96;50.18
77019;BME280;66044;53.142;17.962;2023-07-31T10:10:37;100400.72;;;21.61;51.63
77019;BME280;66044;53.142;17.962;2023-07-31T10:13:08;100396.56;;;21.48;52.69
77019;BME280;66044;53.142;17.962;2023-07-31T10:15:35;100386.73;;;21.47;53.28
77019;BME280;66044;53.142;17.962;2023-07-31T10:18:02;100382.73;;;21.49;53.62
77019;BME280;66044;53.142;17.962;2023-07-31T10:20:32;100388.07;;;21.61;53.73
77019;BME280;66044;53.142;17.962;2023-07-31T10:23:01;100386.86;;;21.63;54.09
77019;BME280;66044;53.142;17.962;2023-07-31T10:25:28;100379.85;;;21.55;54.74
77019;BME280;66044;53.142;17.962;2023-07-31T10:27:57;100376.27;;;21.60;54.78
77019;BME280;66044;53.142;17.962;2023-07-31T10:30:29;100372.11;;;21.69;55.04
77019;BME280;66044;53.142;17.962;2023-07-31T10:32:57;100365.16;;;21.77;55.13
77019;BME280;66044;53.142;17.962;2023-07-31T10:35:24;100363.36;;;21.82;55.19
77019;BME280;66044;53.142;17.962;2023-07-31T10:37:51;100358.95;;;21.91;54.76
77019;BME280;66044;53.142;17.962;2023-07-31T10:40:22;100353.11;;;22.04;54.51
77019;BME280;66044;53.142;17.962;2023-07-31T10:42:54;100340.10;;;22.24;54.34
77019;BME280;66044;53.142;17.962;2023-07-31T10:45:53;100336.70;;;22.53;54.13
77019;BME280;66044;53.142;17.962;2023-07-31T10:48:20;100331.23;;;22.78;53.96
77019;BME280;66044;53.142;17.962;2023-07-31T10:50:49;100329.23;;;23.04;53.99
77019;BME280;66044;53.142;17.962;2023-07-31T10:53:29;100327.88;;;23.31;53.67
77019;BME280;66044;53.142;17.962;2023-07-31T10:56:06;100326.79;;;23.56;53.32
77019;BME280;66044;53.142;17.962;2023-07-31T10:58:33;100320.76;;;23.60;52.26
77019;BME280;66044;53.142;17.962;2023-07-31T11:01:03;100318.97;;;23.62;51.82
77019;BME280;66044;53.142;17.962;2023-07-31T11:03:46;100311.98;;;23.63;51.11
77019;BME280;66044;53.142;17.962;2023-07-31T11:06:14;100314.90;;;23.62;50.71
77019;BME280;66044;53.142;17.962;2023-07-31T11:08:52;100312.02;;;23.62;50.16
77019;BME280;66044;53.142;17.962;2023-07-31T11:11:20;100309.85;;;23.52;49.70
77019;BME280;66044;53.142;17.962;2023-07-31T11:13:48;100315.30;;;23.28;49.10
77019;BME280;66044;53.142;17.962;2023-07-31T11:16:16;100311.40;;;22.98;48.43
77019;BME280;66044;53.142;17.962;2023-07-31T11:18:45;100311.34;;;22.74;48.52
77019;BME280;66044;53.142;17.962;2023-07-31T11:21:13;100310.88;;;22.48;48.68
77019;BME280;66044;53.142;17.962;2023-07-31T11:23:40;100313.41;;;22.31;49.05
77019;BME280;66044;53.142;17.962;2023-07-31T11:26:07;100316.95;;;22.14;49.30
77019;BME280;66044;53.142;17.962;2023-07-31T11:28:35;100321.73;;;22.01;49.70
77019;BME280;66044;53.142;17.962;2023-07-31T11:31:02;100331.21;;;21.85;50.33
77019;BME280;66044;53.142;17.962;2023-07-31T11:33:29;100336.61;;;21.59;51.24
77019;BME280;66044;53.142;17.962;2023-07-31T11:35:56;100342.90;;;21.35;52.46
77019;BME280;66044;53.142;17.962;2023-07-31T11:38:31;100343.21;;;21.17;53.98
77019;BME280;66044;53.142;17.962;2023-07-31T11:41:02;100347.12;;;21.06;55.31
77019;BME280;66044;53.142;17.962;2023-07-31T11:43:31;100341.09;;;21.10;56.10
77019;BME280;66044;53.142;17.962;2023-07-31T11:46:01;100337.45;;;21.16;56.38
77019;BME280;66044;53.142;17.962;2023-07-31T11:48:33;100334.33;;;21.33;56.70
77019;BME280;66044;53.142;17.962;2023-07-31T11:51:05;100333.40;;;21.53;56.59
77019;BME280;66044;53.142;17.962;2023-07-31T11:53:53;100329.48;;;21.68;56.47
77019;BME280;66044;53.142;17.962;2023-07-31T11:56:24;100334.46;;;21.88;55.77
77019;BME280;66044;53.142;17.962;2023-07-31T11:58:58;100328.21;;;21.93;55.19
77019;BME280;66044;53.142;17.962;2023-07-31T12:01:26;100330.44;;;21.99;54.70
77019;BME280;66044;53.142;17.962;2023-07-31T12:03:55;100332.64;;;22.09;54.41
77019;BME280;66044;53.142;17.962;2023-07-31T12:06:32;100330.60;;;22.16;54.19
77019;BME280;66044;53.142;17.962;2023-07-31T12:09:04;100332.95;;;22.27;53.96
77019;BME280;66044;53.142;17.962;2023-07-31T12:11:41;100334.13;;;22.32;53.44
77019;BME280;66044;53.142;17.962;2023-07-31T12:14:22;100328.38;;;22.23;53.30
77019;BME280;66044;53.142;17.962;2023-07-31T12:16:55;100331.14;;;22.27;53.46
77019;BME280;66044;53.142;17.962;2023-07-31T12:19:22;100324.41;;;22.43;53.36
77019;BME280;66044;53.142;17.962;2023-07-31T12:21:49;100319.23;;;22.55;53.11
77019;BME280;66044;53.142;17.962;2023-07-31T12:24:18;100315.02;;;22.48;52.85
77019;BME280;66044;53.142;17.962;2023-07-31T12:26:46;100311.42;;;22.43;53.03
77019;BME280;66044;53.142;17.962;2023-07-31T12:29:13;100307.65;;;22.49;53.05
77019;BME280;66044;53.142;17.962;2023-07-31T12:31:41;100305.17;;;22.54;52.69
77019;BME280;66044;53.142;17.962;2023-07-31T12:34:18;100301.17;;;22.49;52.62
77019;BME280;66044;53.142;17.962;2023-07-31T12:36:47;100300.10;;;22.37;52.58
77019;BME280;66044;53.142;17.962;2023-07-31T12:39:17;100296.34;;;22.17;52.55
77019;BME280;66044;53.142;17.962;2023-07-31T12:41:43;100298.16;;;21.97;52.85
77019;BME280;66044;53.142;17.962;2023-07-31T12:44:10;100293.48;;;21.79;53.17
77019;BME280;66044;53.142;17.962;2023-07-31T12:46:36;100294.58;;;21.60;53.53
77019;BME280;66044;53.142;17.962;2023-07-31T12:49:03;100298.02;;;21.47;53.77
77019;BME280;66044;53.142;17.962;2023-07-31T12:51:30;100293.20;;;21.31;54.07